Time;durP1;ratioP1;P1;durP2;ratioP2;P2;SDS_P1;SDS_P2;PMS_P1;PMS_P2;Temp;Humidity;BMP_temperature;BMP_pressure;BME280_temperature;BME280_humidity;BME280_pressure;Samples;Min_cycle;Max_cycle;Signal;HPM_P1;HPM_P2
2022/09/23 00:00:45;;;;;;;;;11.75;10.50;;;;;14.31;63.22;99487.16;4968431;28;45594;-78
2022/09/23 00:03:11;;;;;;;;;11.00;10.00;;;;;14.31;63.57;99478.34;4935093;28;46364;-78
2022/09/23 00:05:40;;;;;;;;;9.75;8.00;;;;;14.31;63.27;99484.50;4963019;28;45494;-78
2022/09/23 00:08:07;;;;;;;;;9.00;9.00;;;;;14.30;63.68;99485.44;4974263;28;45480;-78
2022/09/23 00:10:36;;;;;;;;;11.25;9.50;;;;;14.32;63.51;99482.72;4971169;28;45534;-78
2022/09/23 00:13:02;;;;;;;;;7.75;7.75;;;;;14.31;63.26;99487.16;4971632;28;46617;-79
2022/09/23 00:15:30;;;;;;;;;8.75;7.75;;;;;14.32;63.13;99488.00;4971915;28;45520;-77
2022/09/23 00:17:56;;;;;;;;;7.75;7.75;;;;;14.35;63.26;99492.31;4954312;28;45504;-77
2022/09/23 00:20:21;;;;;;;;;9.75;9.00;;;;;14.35;63.38;99487.88;4974501;28;45579;-78
2022/09/23 00:22:47;;;;;;;;;9.25;9.00;;;;;14.35;63.64;99492.31;4983118;28;48008;-78
2022/09/23 00:25:12;;;;;;;;;10.00;10.00;;;;;14.33;64.07;99493.25;4979290;28;45403;-78
2022/09/23 00:27:39;;;;;;;;;8.50;8.25;;;;;14.32;64.06;99491.53;4975183;28;45376;-78
2022/09/23 00:30:07;;;;;;;;;10.00;10.00;;;;;14.33;64.27;99490.59;4971788;28;45557;-78
2022/09/23 00:32:33;;;;;;;;;13.00;12.75;;;;;14.32;64.34;99494.19;4970846;28;45486;-70
2022/09/23 00:34:59;;;;;;;;;13.50;12.50;;;;;14.32;64.46;99495.97;4962601;28;45487;-71
2022/09/23 00:37:26;;;;;;;;;9.00;8.75;;;;;14.30;64.53;99489.88;4973862;28;45451;-70
2022/09/23 00:39:51;;;;;;;;;12.00;12.00;;;;;14.30;64.62;99489.88;4972228;28;45545;-70
2022/09/23 00:42:19;;;;;;;;;13.00;12.25;;;;;14.29;64.86;99489.00;4978065;28;46593;-70
2022/09/23 00:44:53;;;;;;;;;12.25;12.25;;;;;14.29;65.02;99490.81;4971585;28;45355;-71
2022/09/23 00:47:33;;;;;;;;;12.25;11.50;;;;;14.29;64.92;99490.81;4974829;28;45549;-70
2022/09/23 00:50:08;;;;;;;;;9.75;9.50;;;;;14.28;65.08;99495.25;4969669;28;45319;-70
2022/09/23 00:52:35;;;;;;;;;13.25;10.75;;;;;14.28;65.33;99487.28;4972288;28;46569;-71
2022/09/23 00:55:04;;;;;;;;;12.00;12.00;;;;;14.28;65.38;99487.28;4954365;28;45498;-71
2022/09/23 00:57:30;;;;;;;;;11.50;11.25;;;;;14.26;65.56;99489.16;4972568;28;45415;-70
2022/09/23 00:59:56;;;;;;;;;9.00;9.00;;;;;14.25;65.64;99484.78;4974638;28;45667;-70
2022/09/23 01:02:22;;;;;;;;;12.50;9.75;;;;;14.25;65.55;99486.59;4975327;28;46447;-71
2022/09/23 01:04:49;;;;;;;;;16.00;13.50;;;;;14.23;65.54;99484.03;4963901;28;45412;-71
2022/09/23 01:07:16;;;;;;;;;15.00;12.00;;;;;14.22;65.83;99482.31;4968643;28;45648;-71
2022/09/23 01:09:42;;;;;;;;;11.00;9.00;;;;;14.22;66.08;99486.75;4975289;28;45540;-71
2022/09/23 01:12:30;;;;;;;;;14.00;11.50;;;;;14.21;66.22;99485.03;4974032;28;46240;-71
2022/09/23 01:15:09;;;;;;;;;7.25;6.00;;;;;14.18;66.53;99478.09;4975252;28;46163;-70
2022/09/23 01:18:22;;;;;;;;;15.00;12.25;;;;;14.15;67.00;99477.38;4974316;28;45542;-70
2022/09/23 01:20:55;;;;;;;;;13.75;12.75;;;;;14.12;67.34;99482.81;4889107;28;45408;-78
2022/09/23 01:23:30;;;;;;;;;11.50;11.00;;;;;14.09;67.55;99485.63;4961723;28;45428;-78
2022/09/23 01:25:55;;;;;;;;;11.25;10.00;;;;;14.06;67.41;99481.34;4958635;28;45472;-77
2022/09/23 01:28:27;;;;;;;;;14.25;14.25;;;;;14.03;67.57;99480.63;4946458;28;45393;-78
2022/09/23 01:31:23;;;;;;;;;11.75;9.75;;;;;13.97;67.29;99479.13;4959671;28;45463;-78
2022/09/23 01:33:57;;;;;;;;;13.75;10.75;;;;;13.95;67.28;99481.84;4955472;28;45598;-77
2022/09/23 01:36:41;;;;;;;;;12.50;12.50;;;;;13.91;67.60;99474.97;4943931;28;45559;-78
2022/09/23 01:39:08;;;;;;;;;10.25;10.00;;;;;13.86;68.25;99484.09;4940874;28;45454;-77
2022/09/23 01:41:54;;;;;;;;;8.00;7.75;;;;;13.82;68.54;99478.06;4956498;28;45550;-78
2022/09/23 01:44:29;;;;;;;;;11.25;11.25;;;;;13.81;67.72;99472.84;4951741;28;47386;-78
2022/09/23 01:47:16;;;;;;;;;15.00;14.75;;;;;13.80;68.50;99479.94;4966569;28;45396;-78
2022/09/23 01:49:51;;;;;;;;;12.25;12.25;;;;;13.80;68.63;99473.78;4958782;28;45404;-78
2022/09/23 01:52:32;;;;;;;;;12.50;11.00;;;;;13.78;67.71;99483.56;4958425;28;45676;-78
2022/09/23 01:55:18;;;;;;;;;9.00;9.00;;;;;13.77;68.12;99477.41;4954522;28;45453;-70
2022/09/23 01:58:08;;;;;;;;;11.50;9.00;;;;;13.77;67.94;99471.25;4958215;28;45484;-70
2022/09/23 02:00:39;;;;;;;;;11.50;11.25;;;;;13.75;67.76;99473.97;4961282;28;45520;-70
2022/09/23 02:03:26;;;;;;;;;10.75;10.75;;;;;13.76;67.13;99481.00;4960872;28;45555;-70
2022/09/23 02:06:16;;;;;;;;;8.75;8.25;;;;;13.76;66.30;99474.84;4948438;28;45521;-70
2022/09/23 02:08:55;;;;;;;;;10.00;9.75;;;;;13.76;66.81;99485.44;4955878;28;45503;-70
2022/09/23 02:11:20;;;;;;;;;12.50;11.00;;;;;13.74;66.94;99480.22;4958237;28;45638;-70
2022/09/23 02:13:50;;;;;;;;;9.75;9.00;;;;;13.73;66.73;99482.97;4956605;28;45631;-70
2022/09/23 02:16:40;;;;;;;;;9.25;8.00;;;;;13.71;67.37;99483.03;4953063;28;45530;-71
2022/09/23 02:19:12;;;;;;;;;8.40;8.00;;;;;13.70;66.77;99481.31;4959764;28;45826;-70
2022/09/23 02:21:43;;;;;;;;;8.00;8.00;;;;;13.70;67.13;99483.97;4972521;28;45448;-71
2022/09/23 02:24:11;;;;;;;;;9.00;9.00;;;;;13.69;67.27;99478.72;4974399;28;45530;-71
2022/09/23 02:26:55;;;;;;;;;11.75;9.00;;;;;13.65;67.72;99482.44;4954727;28;48260;-70
2022/09/23 02:29:28;;;;;;;;;18.50;16.50;;;;;13.65;67.78;99479.78;4950522;28;45514;-71
2022/09/23 02:32:21;;;;;;;;;13.25;12.00;;;;;13.63;66.98;99479.88;4955098;28;45462;-71
2022/09/23 02:35:31;;;;;;;;;11.50;11.00;;;;;13.61;68.20;99482.59;4955386;28;45618;-71
2022/09/23 02:38:14;;;;;;;;;11.25;11.25;;;;;13.57;68.13;99482.81;4948163;28;46352;-71
2022/09/23 02:40:49;;;;;;;;;9.00;9.00;;;;;13.53;67.79;99486.53;4974780;28;45438;-70
2022/09/23 02:43:26;;;;;;;;;12.50;11.25;;;;;13.50;67.58;99487.53;4983162;28;45592;-78
2022/09/23 02:45:52;;;;;;;;;10.25;9.00;;;;;13.50;67.70;99489.31;4972994;28;45534;-71
2022/09/23 02:48:27;;;;;;;;;12.00;11.50;;;;;13.50;67.89;99486.66;4978464;28;45427;-71
2022/09/23 02:50:53;;;;;;;;;11.25;11.25;;;;;13.47;68.41;99485.00;4971190;28;45546;-71
2022/09/23 02:53:21;;;;;;;;;13.00;11.50;;;;;13.45;68.47;99488.66;4975735;28;45436;-71
2022/09/23 02:55:46;;;;;;;;;11.75;8.50;;;;;13.45;68.47;99488.66;4976018;28;45545;-70
2022/09/23 02:58:13;;;;;;;;;11.50;11.00;;;;;13.44;68.70;99487.78;4975905;28;46492;-71
2022/09/23 03:00:57;;;;;;;;;11.00;10.00;;;;;13.43;68.93;99488.72;4975981;28;45541;-72
2022/09/23 03:03:35;;;;;;;;;10.25;8.50;;;;;13.42;68.49;99491.44;4975701;28;45460;-72
2022/09/23 03:06:14;;;;;;;;;10.75;10.75;;;;;13.40;68.65;99488.91;4962309;28;45626;-71
2022/09/23 03:08:52;;;;;;;;;12.25;10.75;;;;;13.39;68.79;99492.47;4976022;28;46304;-72
2022/09/23 03:11:20;;;;;;;;;13.50;13.00;;;;;13.37;68.99;99486.38;4973106;28;45394;-72
2022/09/23 03:14:27;;;;;;;;;10.00;10.00;;;;;13.37;69.01;99483.72;4974656;28;45603;-72
2022/09/23 03:16:59;;;;;;;;;11.50;10.50;;;;;13.35;69.16;99485.59;4921787;28;45619;-71
2022/09/23 03:19:24;;;;;;;;;9.50;9.00;;;;;13.32;69.37;99483.06;4971380;28;45375;-70
2022/09/23 03:22:17;;;;;;;;;12.75;11.00;;;;;13.30;69.21;99492.88;4958959;28;45923;-71
2022/09/23 03:24:45;;;;;;;;;9.00;9.00;;;;;13.27;69.39;99485.06;4964431;28;45438;-71
2022/09/23 03:27:18;;;;;;;;;11.75;11.00;;;;;13.26;69.32;99485.97;4972181;28;45468;-72
2022/09/23 03:29:52;;;;;;;;;9.75;9.00;;;;;13.25;69.15;99481.63;4974545;28;45462;-72
2022/09/23 03:32:21;;;;;;;;;15.50;11.75;;;;;13.22;69.12;99487.94;4975002;28;45355;-72
2022/09/23 03:34:50;;;;;;;;;9.25;9.25;;;;;13.21;68.95;99482.72;4972239;28;45484;-71
2022/09/23 03:37:30;;;;;;;;;9.00;8.00;;;;;13.17;68.92;99483.75;4949378;28;45686;-72
2022/09/23 03:40:06;;;;;;;;;9.75;8.00;;;;;13.13;69.35;99488.28;4975407;28;45541;-71
2022/09/23 03:42:34;;;;;;;;;10.00;10.00;;;;;13.11;69.49;99484.84;4972595;28;45792;-72
2022/09/23 03:45:07;;;;;;;;;12.00;12.00;;;;;13.11;69.62;99486.63;4974428;28;45578;-71
2022/09/23 03:47:34;;;;;;;;;13.50;11.00;;;;;13.09;69.84;99491.13;4972181;28;45454;-72
2022/09/23 03:49:59;;;;;;;;;11.25;10.25;;;;;13.07;69.81;99483.25;4975382;28;45683;-71
2022/09/23 03:52:25;;;;;;;;;10.50;10.50;;;;;13.06;69.94;99486.00;4973274;28;45376;-72
2022/09/23 03:54:51;;;;;;;;;10.50;10.00;;;;;13.02;69.96;99489.72;4976617;28;45364;-71
2022/09/23 03:57:17;;;;;;;;;10.50;10.00;;;;;12.99;70.50;99490.69;4975346;28;45408;-71
2022/09/23 03:59:42;;;;;;;;;11.00;11.00;;;;;12.99;70.64;99485.41;4972846;28;45562;-72
2022/09/23 04:02:08;;;;;;;;;13.25;13.25;;;;;12.98;70.95;99482.81;4953847;28;45456;-72
2022/09/23 04:04:39;;;;;;;;;14.75;11.00;;;;;12.97;70.85;99489.91;4969358;28;45476;-71
2022/09/23 04:07:04;;;;;;;;;11.25;11.25;;;;;12.96;70.78;99489.97;4962571;28;45458;-72
2022/09/23 04:09:30;;;;;;;;;12.00;11.25;;;;;12.94;70.93;99496.19;4976516;28;45507;-71
2022/09/23 04:11:55;;;;;;;;;14.00;13.75;;;;;12.93;71.23;99490.97;4955698;28;45471;-71
2022/09/23 04:14:21;;;;;;;;;13.75;12.00;;;;;12.91;71.10;99493.66;4973362;28;45430;-71
2022/09/23 04:16:48;;;;;;;;;17.00;15.75;;;;;12.92;70.80;99491.88;4970785;28;45316;-72
2022/09/23 04:19:15;;;;;;;;;13.25;11.50;;;;;12.89;71.00;99492.03;4972591;28;45443;-71
2022/09/23 04:21:41;;;;;;;;;13.00;13.00;;;;;12.87;70.88;99499.19;4976774;28;45641;-72
2022/09/23 04:24:08;;;;;;;;;12.50;10.25;;;;;12.86;71.38;99502.75;4973606;28;45452;-71
2022/09/23 04:26:34;;;;;;;;;12.75;11.75;;;;;12.86;71.11;99495.69;4974234;28;45572;-72
2022/09/23 04:29:00;;;;;;;;;11.00;11.00;;;;;12.85;71.29;99501.88;4977372;28;45533;-71
2022/09/23 04:31:25;;;;;;;;;15.50;13.00;;;;;12.84;71.37;99502.81;4972771;28;45560;-71
2022/09/23 04:33:54;;;;;;;;;12.50;12.00;;;;;12.86;71.18;99503.63;4975686;28;45399;-72
2022/09/23 04:36:20;;;;;;;;;13.75;13.75;;;;;12.86;70.69;99506.25;4963289;28;45537;-71
2022/09/23 04:38:47;;;;;;;;;12.00;11.00;;;;;12.87;71.31;99510.63;4972917;28;45527;-71
2022/09/23 04:41:13;;;;;;;;;16.00;14.00;;;;;12.88;71.31;99512.34;4972090;28;45455;-72
2022/09/23 04:43:39;;;;;;;;;14.00;13.50;;;;;12.89;71.21;99521.16;4976661;28;45422;-72
2022/09/23 04:46:08;;;;;;;;;15.25;12.75;;;;;12.88;71.54;99519.44;4974268;28;45477;-72
2022/09/23 04:48:35;;;;;;;;;15.75;14.75;;;;;12.88;71.39;99517.66;4957391;28;47303;-72
2022/09/23 04:51:06;;;;;;;;;14.00;12.50;;;;;12.88;71.43;99519.44;4969900;28;45555;-72
2022/09/23 04:53:33;;;;;;;;;15.25;13.50;;;;;12.87;71.51;99523.84;4955840;28;45348;-72
2022/09/23 04:56:08;;;;;;;;;13.00;11.75;;;;;12.86;71.48;99522.13;4970825;28;45291;-71
2022/09/23 04:58:34;;;;;;;;;15.50;13.75;;;;;12.85;71.48;99520.41;4972508;28;45501;-71
2022/09/23 05:01:12;;;;;;;;;11.25;10.50;;;;;12.85;71.43;99528.34;4970522;28;45394;-71
2022/09/23 05:03:37;;;;;;;;;11.00;10.25;;;;;12.85;71.26;99523.06;4971985;28;45553;-71
2022/09/23 05:06:03;;;;;;;;;9.00;9.00;;;;;12.84;71.43;99525.78;4961654;28;45646;-72
2022/09/23 05:08:29;;;;;;;;;11.25;10.50;;;;;12.81;71.24;99521.47;4964444;28;46280;-71
2022/09/23 05:10:59;;;;;;;;;10.25;10.00;;;;;12.80;71.25;99527.69;4970539;28;45534;-72
2022/09/23 05:13:25;;;;;;;;;11.00;11.00;;;;;12.79;70.85;99530.38;4971870;28;45372;-71
2022/09/23 05:15:57;;;;;;;;;10.00;10.00;;;;;12.78;70.90;99531.31;4974633;28;45422;-71
2022/09/23 05:18:22;;;;;;;;;11.50;11.25;;;;;12.78;70.95;99532.16;4971491;28;45518;-72
2022/09/23 05:20:54;;;;;;;;;14.00;12.25;;;;;12.79;71.12;99535.69;4972275;28;45455;-71
2022/09/23 05:23:20;;;;;;;;;8.50;7.25;;;;;12.80;70.85;99532.97;4966547;28;45567;-72
2022/09/23 05:25:47;;;;;;;;;12.00;11.25;;;;;12.81;71.14;99537.34;4968339;28;45360;-72
2022/09/23 05:28:16;;;;;;;;;18.50;16.25;;;;;12.82;70.82;99536.41;4967010;28;47254;-73
2022/09/23 05:30:42;;;;;;;;;14.00;12.00;;;;;12.82;71.12;99536.41;4970226;28;45494;-72
2022/09/23 05:33:07;;;;;;;;;12.75;12.75;;;;;12.83;70.45;99531.97;4969905;28;45607;-72
2022/09/23 05:35:32;;;;;;;;;11.50;11.25;;;;;12.81;70.69;99529.41;4973360;28;45582;-70
2022/09/23 05:37:58;;;;;;;;;11.25;10.00;;;;;12.83;70.84;99537.28;4965347;28;46213;-72
2022/09/23 05:40:23;;;;;;;;;14.00;11.00;;;;;12.84;70.82;99531.91;4976371;28;45521;-71
2022/09/23 05:42:50;;;;;;;;;12.00;11.00;;;;;12.86;70.77;99539.81;4975333;28;45486;-72
2022/09/23 05:45:16;;;;;;;;;13.00;11.00;;;;;12.87;70.68;99537.09;4972115;28;45771;-60
2022/09/23 05:47:42;;;;;;;;;13.25;13.25;;;;;12.99;70.83;99545.41;4976327;28;45617;-59
2022/09/23 05:50:08;;;;;;;;;14.00;14.00;;;;;13.08;70.36;99540.56;4972712;28;45398;-58
2022/09/23 05:52:34;;;;;;;;;13.25;13.25;;;;;13.13;70.12;99541.25;4971948;28;45619;-59
2022/09/23 05:54:59;;;;;;;;;11.75;11.75;;;;;13.17;69.43;99545.53;4963640;28;45528;-60
2022/09/23 05:57:24;;;;;;;;;12.50;12.00;;;;;13.20;69.70;99552.47;4973086;28;46001;-60
2022/09/23 05:59:50;;;;;;;;;14.25;13.25;;;;;13.22;69.83;99548.84;4976381;28;45448;-59
2022/09/23 06:02:15;;;;;;;;;11.25;11.25;;;;;13.26;69.50;99549.53;4976007;28;45523;-59
2022/09/23 06:04:41;;;;;;;;;11.75;11.75;;;;;13.27;69.32;99548.59;4973478;28;45443;-59
2022/09/23 06:07:07;;;;;;;;;10.75;10.75;;;;;13.32;69.48;99548.41;4972713;28;45513;-58
2022/09/23 06:09:32;;;;;;;;;15.25;12.75;;;;;13.35;69.12;99558.88;4979263;28;45483;-60
2022/09/23 06:11:58;;;;;;;;;15.00;13.75;;;;;13.34;68.88;99544.78;4973087;28;45506;-57
2022/09/23 06:14:23;;;;;;;;;13.25;13.25;;;;;13.37;69.11;99549.94;4974638;28;45582;-60
2022/09/23 06:16:48;;;;;;;;;10.75;7.00;;;;;13.40;68.99;99544.50;4975417;28;46512;-59
2022/09/23 06:19:14;;;;;;;;;12.00;12.00;;;;;13.42;68.84;99545.28;4974638;28;45574;-61
2022/09/23 06:21:40;;;;;;;;;13.25;13.25;;;;;13.43;68.74;99549.63;4976242;28;45447;-59
2022/09/23 06:24:06;;;;;;;;;15.00;14.00;;;;;13.44;68.43;99540.78;4978653;28;45569;-59
2022/09/23 06:26:36;;;;;;;;;12.50;11.75;;;;;13.44;68.48;99551.38;4972097;28;45587;-59
2022/09/23 06:29:08;;;;;;;;;12.00;12.00;;;;;13.45;68.72;99549.56;4976008;28;45562;-59
2022/09/23 06:31:33;;;;;;;;;14.75;13.75;;;;;13.46;68.68;99546.84;4973185;28;45459;-59
2022/09/23 06:33:59;;;;;;;;;13.00;12.25;;;;;13.47;68.54;99545.94;4973371;28;45342;-59
2022/09/23 06:36:24;;;;;;;;;12.00;11.50;;;;;13.53;68.68;99547.47;4971641;28;45517;-58
2022/09/23 06:38:50;;;;;;;;;44.00;37.00;;;;;13.58;68.55;99548.94;4964989;28;45423;-59
2022/09/23 06:41:15;;;;;;;;;14.00;13.00;;;;;13.63;68.64;99557.56;4954828;28;45444;-59
2022/09/23 06:43:41;;;;;;;;;16.50;15.50;;;;;13.70;68.23;99559.94;4958840;28;45620;-59
2022/09/23 06:46:07;;;;;;;;;16.75;14.50;;;;;13.74;68.25;99553.56;4969375;28;45566;-59
2022/09/23 06:48:36;;;;;;;;;18.75;17.75;;;;;13.79;68.14;99556.84;4977032;28;45493;-59
2022/09/23 06:51:06;;;;;;;;;16.25;15.00;;;;;13.82;68.18;99556.72;4971024;28;45464;-60
2022/09/23 06:53:31;;;;;;;;;13.00;12.75;;;;;13.87;67.64;99558.22;4973386;28;45555;-59
2022/09/23 06:56:07;;;;;;;;;14.00;13.00;;;;;13.92;67.43;99550.03;4971079;28;45846;-59
2022/09/23 06:58:34;;;;;;;;;12.25;12.25;;;;;13.96;67.53;99551.63;4972142;28;45458;-59
2022/09/23 07:01:06;;;;;;;;;20.00;17.00;;;;;14.01;67.64;99551.41;4963651;28;45431;-58
2022/09/23 07:03:34;;;;;;;;;15.00;14.25;;;;;14.06;67.07;99549.41;4971810;28;45442;-58
2022/09/23 07:06:00;;;;;;;;;13.50;12.25;;;;;14.09;67.05;99554.53;4970867;28;47348;-58
2022/09/23 07:08:28;;;;;;;;;14.50;14.25;;;;;14.14;66.87;99544.59;4973984;28;46378;-62
2022/09/23 07:10:57;;;;;;;;;13.75;12.00;;;;;14.21;66.58;99557.50;4971400;28;45546;-58
2022/09/23 07:13:23;;;;;;;;;14.00;12.50;;;;;14.27;66.19;99554.53;4974260;28;45843;-59
2022/09/23 07:15:57;;;;;;;;;13.75;13.75;;;;;14.34;66.30;99555.09;4976792;28;45535;-59
2022/09/23 07:18:24;;;;;;;;;14.00;14.00;;;;;14.43;65.83;99556.47;4990711;28;45707;-59
2022/09/23 07:20:56;;;;;;;;;15.25;13.50;;;;;14.50;65.51;99555.25;4984770;28;45472;-59
2022/09/23 07:23:22;;;;;;;;;13.50;13.00;;;;;14.57;65.22;99554.88;4980309;28;45571;-59
2022/09/23 07:25:50;;;;;;;;;14.25;12.25;;;;;14.67;64.64;99544.66;4968406;28;47504;-59
2022/09/23 07:28:16;;;;;;;;;12.75;11.25;;;;;14.75;65.00;99552.22;4987564;28;45607;-60
2022/09/23 07:30:43;;;;;;;;;15.25;13.25;;;;;14.82;64.62;99549.19;4989375;28;45574;-59
2022/09/23 07:33:09;;;;;;;;;13.00;12.50;;;;;14.88;64.09;99562.16;4971091;28;45447;-59
2022/09/23 07:38:10;;;;;;;;;14.25;14.25;;;;;15.06;64.22;99567.47;4939148;26;45563;-58
2022/09/23 07:40:38;;;;;;;;;16.00;14.25;;;;;15.14;63.92;99567.94;4946557;28;45534;-59
2022/09/23 07:43:04;;;;;;;;;4.25;4.25;;;;;15.22;63.54;99561.31;4948327;28;45475;-59
2022/09/23 07:45:31;;;;;;;;;14.25;13.00;;;;;15.29;63.01;99556.50;4953021;28;46229;-59
2022/09/23 07:47:57;;;;;;;;;29.00;26.00;;;;;15.36;63.29;99564.09;4941058;28;45533;-58
2022/09/23 07:50:22;;;;;;;;;11.25;11.25;;;;;15.45;62.89;99564.53;4953030;28;45860;-58
2022/09/23 07:52:51;;;;;;;;;13.50;12.75;;;;;15.51;62.58;99561.56;4937869;28;45589;-58
2022/09/23 07:55:17;;;;;;;;;15.75;15.00;;;;;15.59;62.44;99562.88;4954179;28;45420;-58
2022/09/23 07:57:42;;;;;;;;;14.50;13.25;;;;;15.67;62.30;99563.34;4931537;28;45551;-58
2022/09/23 08:00:08;;;;;;;;;13.50;13.25;;;;;15.78;61.65;99561.91;4936074;28;45675;-59
2022/09/23 08:02:34;;;;;;;;;12.00;12.00;;;;;15.85;61.45;99564.16;4930522;28;45468;-60
2022/09/23 08:04:59;;;;;;;;;14.50;13.25;;;;;15.96;61.46;99552.91;4947054;28;46333;-60
2022/09/23 08:07:25;;;;;;;;;15.50;13.00;;;;;16.05;61.17;99555.09;4944394;28;45578;-60
2022/09/23 08:09:50;;;;;;;;;11.25;11.00;;;;;16.14;61.14;99551.03;4949285;28;45378;-60
2022/09/23 08:12:17;;;;;;;;;9.75;9.75;;;;;16.21;60.80;99555.94;4949117;28;45456;-60
2022/09/23 08:14:43;;;;;;;;;11.50;11.00;;;;;16.30;60.60;99546.56;4947543;28;45913;-58
2022/09/23 08:17:10;;;;;;;;;13.25;12.00;;;;;16.36;60.26;99549.75;4946506;28;45518;-60
2022/09/23 08:19:35;;;;;;;;;13.50;13.50;;;;;16.42;60.68;99546.72;4932246;28;45550;-59
2022/09/23 08:22:00;;;;;;;;;20.25;13.75;;;;;16.48;60.36;99539.34;4947982;28;45559;-59
2022/09/23 08:24:26;;;;;;;;;17.25;15.50;;;;;16.50;59.31;99542.78;4950507;28;45478;-59
2022/09/23 08:26:53;;;;;;;;;16.25;16.25;;;;;16.55;59.62;99540.72;4947742;28;45506;-59
2022/09/23 08:29:22;;;;;;;;;14.00;13.50;;;;;16.58;58.98;99533.41;4940257;28;45557;-59
2022/09/23 08:31:48;;;;;;;;;11.50;11.50;;;;;16.63;58.52;99531.34;4950255;28;45593;-59
2022/09/23 08:34:16;;;;;;;;;10.00;9.50;;;;;16.67;58.40;99530.25;4940821;28;46645;-59
2022/09/23 08:36:41;;;;;;;;;12.00;11.00;;;;;16.72;58.43;99532.63;4927552;28;45531;-59
2022/09/23 08:39:07;;;;;;;;;15.75;13.50;;;;;16.78;58.69;99537.59;4945391;28;45627;-59
2022/09/23 08:41:47;;;;;;;;;16.00;14.50;;;;;16.85;58.32;99532.78;4946090;28;45477;-59
2022/09/23 08:44:19;;;;;;;;;6.50;4.50;;;;;16.92;58.37;99532.34;4946683;28;47296;-59
2022/09/23 08:47:05;;;;;;;;;13.75;13.50;;;;;17.00;58.06;99534.53;4946125;28;45629;-59
2022/09/23 08:49:38;;;;;;;;;15.50;14.00;;;;;17.05;58.17;99527.13;4950521;28;45550;-59
2022/09/23 08:52:13;;;;;;;;;17.25;15.75;;;;;17.11;57.51;99518.72;4928817;28;45601;-59
2022/09/23 08:54:39;;;;;;;;;20.00;18.50;;;;;17.19;57.89;99520.94;4947736;28;45564;-59
2022/09/23 08:57:06;;;;;;;;;13.50;13.00;;;;;17.23;57.22;99517.16;4944843;28;45458;-59
2022/09/23 08:59:41;;;;;;;;;11.00;10.25;;;;;17.29;57.37;99520.28;4948140;28;45559;-59
2022/09/23 09:02:18;;;;;;;;;14.00;12.75;;;;;17.38;57.02;99514.41;4945496;28;45497;-59
2022/09/23 09:04:53;;;;;;;;;13.00;12.50;;;;;17.49;57.25;99504.88;4962231;28;47212;-59
2022/09/23 09:07:32;;;;;;;;;11.50;11.50;;;;;17.63;56.96;99507.53;4950537;28;45476;-59
2022/09/23 09:10:04;;;;;;;;;11.75;9.50;;;;;17.74;56.52;99500.63;4968904;28;45419;-59
2022/09/23 09:12:39;;;;;;;;;15.75;15.00;;;;;17.87;56.66;99486.50;4954622;28;45462;-58
2022/09/23 09:15:21;;;;;;;;;13.25;13.25;;;;;17.98;56.54;99492.84;4950495;28;45684;-59
2022/09/23 09:18:19;;;;;;;;;13.20;12.80;;;;;18.14;56.12;99482.03;4951831;28;45526;-59
2022/09/23 09:21:13;;;;;;;;;14.25;10.50;;;;;18.30;55.83;99482.75;4951875;28;45423;-60
2022/09/23 09:23:50;;;;;;;;;9.50;9.00;;;;;18.42;55.41;99481.09;4954102;28;45505;-60
2022/09/23 09:26:21;;;;;;;;;16.00;11.00;;;;;18.49;55.28;99482.38;4949774;28;45779;-60
2022/09/23 09:29:12;;;;;;;;;11.80;10.80;;;;;18.57;55.54;99485.41;4950886;28;45588;-60
2022/09/23 09:31:41;;;;;;;;;11.25;11.25;;;;;18.66;54.96;99483.94;4960189;28;45490;-60
2022/09/23 09:34:28;;;;;;;;;8.00;7.75;;;;;18.74;54.55;99476.28;4952610;28;45658;-58
2022/09/23 09:37:05;;;;;;;;;13.00;10.00;;;;;18.80;54.45;99473.19;4949209;28;46724;-60
2022/09/23 09:39:32;;;;;;;;;12.40;10.60;;;;;18.86;54.06;99464.75;4937380;28;45526;-60
2022/09/23 09:41:58;;;;;;;;;9.60;8.40;;;;;18.93;53.74;99466.06;4948222;28;45340;-60
2022/09/23 09:45:01;;;;;;;;;8.50;8.00;;;;;18.96;53.87;99457.81;4958784;28;45549;-60
2022/09/23 09:47:27;;;;;;;;;14.00;14.00;;;;;19.00;53.72;99453.97;4946909;28;45587;-60
2022/09/23 09:50:04;;;;;;;;;14.25;12.00;;;;;19.06;53.42;99455.38;4953926;28;45524;-61
2022/09/23 09:52:30;;;;;;;;;11.00;9.25;;;;;19.08;53.25;99459.66;4948130;28;45445;-60
2022/09/23 09:55:16;;;;;;;;;11.50;9.75;;;;;19.11;53.12;99448.72;4953530;28;45539;-60
2022/09/23 09:57:51;;;;;;;;;12.50;8.50;;;;;19.19;53.39;99445.53;4946992;28;47126;-60
2022/09/23 10:00:25;;;;;;;;;12.20;11.40;;;;;19.26;53.40;99445.97;4952299;28;45483;-60
2022/09/23 10:03:11;;;;;;;;;10.25;9.75;;;;;19.33;53.08;99440.06;4948591;28;45481;-60
2022/09/23 10:05:42;;;;;;;;;8.50;8.50;;;;;19.40;52.95;99437.81;4915520;28;45618;-60
2022/09/23 10:08:35;;;;;;;;;11.00;11.00;;;;;19.48;52.73;99440.78;4955090;28;45478;-60
2022/09/23 10:11:16;;;;;;;;;6.00;6.00;;;;;19.55;52.72;99434.09;4967271;28;45493;-60
2022/09/23 10:14:01;;;;;;;;;12.25;9.00;;;;;19.59;52.81;99424.88;4960481;28;45451;-60
2022/09/23 10:16:30;;;;;;;;;9.00;9.00;;;;;19.63;52.38;99423.66;4957660;28;45490;-59
2022/09/23 10:18:57;;;;;;;;;10.00;9.25;;;;;19.69;51.61;99419.69;4960366;28;46519;-60
2022/09/23 10:21:24;;;;;;;;;8.80;8.80;;;;;19.73;51.70;99415.84;4954821;28;45414;-60
2022/09/23 10:23:54;;;;;;;;;9.25;9.00;;;;;19.77;51.54;99407.47;4960753;28;45367;-60
2022/09/23 10:26:55;;;;;;;;;11.25;10.00;;;;;19.81;51.88;99398.25;4959067;28;45510;-60
2022/09/23 10:29:39;;;;;;;;;12.40;9.40;;;;;19.84;51.30;99399.84;4952245;28;45485;-59
2022/09/23 10:32:26;;;;;;;;;8.40;8.00;;;;;19.81;51.14;99387.53;4975818;28;45550;-59
2022/09/23 10:35:12;;;;;;;;;9.25;9.00;;;;;19.82;51.05;99380.38;4976167;28;45421;-60
2022/09/23 10:37:53;;;;;;;;;5.00;5.00;;;;;19.86;50.57;99372.00;4967453;28;45708;-59
2022/09/23 10:46:37;;;;;;;;;7.40;5.40;;;;;20.02;49.30;99363.69;4948668;28;45482;-60
2022/09/23 10:49:33;;;;;;;;;9.00;8.75;;;;;20.11;49.75;99365.66;4944825;28;45566;-60
2022/09/23 10:52:08;;;;;;;;;7.60;7.00;;;;;20.21;50.02;99363.16;4972674;28;45382;-60
2022/09/23 10:54:55;;;;;;;;;7.00;6.60;;;;;20.29;49.44;99362.56;4975393;28;45388;-60
2022/09/23 10:57:45;;;;;;;;;9.25;8.00;;;;;20.40;49.04;99341.22;4955586;28;45572;-58
2022/09/23 11:00:39;;;;;;;;;8.75;7.75;;;;;20.46;49.35;99352.31;4975934;28;45338;-60
2022/09/23 11:03:23;;;;;;;;;10.25;10.25;;;;;20.57;49.30;99342.59;4975921;28;45895;-61
2022/09/23 11:06:10;;;;;;;;;7.00;7.00;;;;;20.65;48.54;99342.84;4951575;28;45470;-58
2022/09/23 11:09:11;;;;;;;;;9.20;7.80;;;;;20.74;48.92;99334.09;4954291;28;45579;-59
2022/09/23 11:11:50;;;;;;;;;8.75;8.75;;;;;20.81;48.48;99335.31;4953339;28;45416;-58
2022/09/23 11:15:15;;;;;;;;;6.20;6.20;;;;;20.92;48.06;99334.50;4943209;28;45481;-58
2022/09/23 11:17:55;;;;;;;;;10.00;7.20;;;;;21.01;47.46;99315.84;4936829;28;45481;-59
2022/09/23 11:20:53;;;;;;;;;8.80;6.60;;;;;21.08;47.62;99322.41;4942780;28;45437;-59
2022/09/23 11:23:48;;;;;;;;;11.00;10.75;;;;;21.16;47.21;99314.59;4956350;28;45397;-60
2022/09/23 11:27:07;;;;;;;;;7.00;7.00;;;;;21.28;46.93;99302.09;4931803;28;45512;-58
2022/09/23 11:29:54;;;;;;;;;8.80;8.60;;;;;21.35;46.99;99300.59;4895309;29;45438;-59
2022/09/23 11:32:38;;;;;;;;;7.80;7.40;;;;;21.46;47.02;99302.38;4947710;28;45454;-60
2022/09/23 11:35:18;;;;;;;;;9.00;9.00;;;;;21.56;46.43;99298.84;4966176;28;45415;-58
2022/09/23 11:38:13;;;;;;;;;7.60;6.40;;;;;21.69;45.89;99281.72;4973314;28;46014;-59
2022/09/23 11:40:43;;;;;;;;;7.40;7.00;;;;;21.79;46.02;99280.81;4953858;28;45379;-60
2022/09/23 11:43:22;;;;;;;;;8.80;7.40;;;;;21.94;46.30;99276.00;4975265;28;45486;-60
2022/09/23 11:46:05;;;;;;;;;10.50;9.50;;;;;22.09;46.21;99273.88;4959661;28;45549;-60
2022/09/23 11:48:44;;;;;;;;;7.80;7.80;;;;;22.20;46.22;99273.81;4952142;28;46383;-60
2022/09/23 11:51:15;;;;;;;;;7.80;7.20;;;;;22.27;45.13;99266.94;4965835;28;45347;-60
2022/09/23 11:53:55;;;;;;;;;9.60;8.00;;;;;22.35;45.43;99274.31;4964739;28;45451;-60
2022/09/23 11:56:44;;;;;;;;;8.00;6.75;;;;;22.37;45.64;99267.00;4955403;28;45465;-58